Time;durP1;ratioP1;P1;durP2;ratioP2;P2;SDS_P1;SDS_P2;PMS_P1;PMS_P2;Temp;Humidity;BMP_temperature;BMP_pressure;BME280_temperature;BME280_humidity;BME280_pressure;Samples;Min_cycle;Max_cycle;Signal;HPM_P1;HPM_P2
2023/08/10 00:01:18;;;;;;;;;;;;;;;;;;2196201;59;2382;-24
2023/08/10 00:03:48;;;;;;;;;;;;;;;;;;2196449;59;1825;-24
2023/08/10 00:06:18;;;;;;;;;;;;;;;;;;2196645;66;1998;-24
2023/08/10 00:08:50;;;;;;;;;;;;;;;;;;2197315;66;1785;-24
2023/08/10 00:11:20;;;;;;;;;;;;;;;;;;2197625;66;2256;-24
2023/08/10 00:13:50;;;;;;;;;;;;;;;;;;2198192;66;1756;-24
2023/08/10 00:16:20;;;;;;;;;;;;;;;;;;2196417;66;2140;-24
2023/08/10 00:18:51;;;;;;;;;;;;;;;;;;2195923;66;2280;-24
2023/08/10 00:21:21;;;;;;;;;;;;;;;;;;2197950;66;1932;-24
2023/08/10 00:23:51;;;;;;;;;;;;;;;;;;2197320;66;1957;-24
2023/08/10 00:26:25;;;;;;;;;;;;;;;;;;2201202;59;1854;-24
2023/08/10 00:28:55;;;;;;;;;;;;;;;;;;2196499;66;2103;-24
2023/08/10 00:31:25;;;;;;;;;;;;;;;;;;2198095;66;2416;-23
2023/08/10 00:33:55;;;;;;;;;;;;;;;;;;2197819;58;1700;-24
2023/08/10 00:36:26;;;;;;;;;;;;;;;;;;2201481;66;2517;-24
2023/08/10 00:38:56;;;;;;;;;;;;;;;;;;2198186;66;1849;-24
2023/08/10 00:41:26;;;;;;;;;;;;;;;;;;2201238;66;1991;-24
2023/08/10 00:43:56;;;;;;;;;;;;;;;;;;2201603;66;2885;-24
2023/08/10 00:46:27;;;;;;;;;;;;;;;;;;2200219;59;2119;-24
2023/08/10 00:48:57;;;;;;;;;;;;;;;;;;2198041;66;1824;-23
2023/08/10 00:51:28;;;;;;;;;;;;;;;;;;2199408;59;1958;-24
2023/08/10 00:53:59;;;;;;;;;;;;;;;;;;2198175;58;1998;-24
2023/08/10 00:56:33;;;;;;;;;;;;;;;;;;2198342;59;1808;-24
2023/08/10 00:59:03;;;;;;;;;;;;;;;;;;2198495;66;2821;-23
2023/08/10 01:01:34;;;;;;;;;;;;;;;;;;2199934;59;3403;-23
2023/08/10 01:04:04;;;;;;;;;;;;;;;;;;2198259;59;1809;-24
2023/08/10 01:06:44;;;;;;;;;;;;;;;;;;2198839;66;2742;-23
2023/08/10 01:09:33;;;;;;;;;;;;;;;;;;2196885;66;2530;-24
2023/08/10 01:12:17;;;;;;;;;;;;;;;;;;2198218;66;1978;-24
2023/08/10 01:15:03;;;;;;;;;;;;;;;;;;2200382;66;1972;-23
2023/08/10 01:17:38;;;;;;;;;;;;;;;;;;2199321;66;2666;-23
2023/08/10 01:20:09;;;;;;;;;;;;;;;;;;2197894;60;2387;-24
2023/08/10 01:22:39;;;;;;;;;;;;;;;;;;2197988;66;1911;-24
2023/08/10 01:25:10;;;;;;;;;;;;;;;;;;2197631;66;2849;-24
2023/08/10 01:27:41;;;;;;;;;;;;;;;;;;2198933;59;2149;-23
2023/08/10 01:30:11;;;;;;;;;;;;;;;;;;2197983;66;2215;-24
2023/08/10 01:32:42;;;;;;;;;;;;;;;;;;2199614;59;2228;-23
2023/08/10 01:35:12;;;;;;;;;;;;;;;;;;2197725;66;2241;-24
2023/08/10 01:37:43;;;;;;;;;;;;;;;;;;2201637;66;1765;-24
2023/08/10 01:40:15;;;;;;;;;;;;;;;;;;2198373;64;1994;-24
2023/08/10 01:42:46;;;;;;;;;;;;;;;;;;2199385;66;1700;-24
2023/08/10 01:45:16;;;;;;;;;;;;;;;;;;2198329;59;2010;-24
2023/08/10 01:47:52;;;;;;;;;;;;;;;;;;2198239;66;1964;-23
2023/08/10 01:50:24;;;;;;;;;;;;;;;;;;2197699;59;1923;-24
2023/08/10 01:52:56;;;;;;;;;;;;;;;;;;2198719;59;1531;-24
2023/08/10 01:55:29;;;;;;;;;;;;;;;;;;2199864;59;2471;-24
2023/08/10 01:57:59;;;;;;;;;;;;;;;;;;2199459;66;1626;-24
2023/08/10 02:00:30;;;;;;;;;;;;;;;;;;2197932;59;2137;-24
2023/08/10 02:03:00;;;;;;;;;;;;;;;;;;2198427;66;1971;-24
2023/08/10 02:05:30;;;;;;;;;;;;;;;;;;2196623;66;1776;-24
2023/08/10 02:08:00;;;;;;;;;;;;;;;;;;2199967;66;1769;-23
2023/08/10 02:10:31;;;;;;;;;;;;;;;;;;2199200;66;1869;-23
2023/08/10 02:13:01;;;;;;;;;;;;;;;;;;2197845;59;1894;-24
2023/08/10 02:15:31;;;;;;;;;;;;;;;;;;2200097;66;2398;-24
2023/08/10 02:18:01;;;;;;;;;;;;;;;;;;2199721;66;1852;-23
2023/08/10 02:20:32;;;;;;;;;;;;;;;;;;2197673;66;2428;-24
2023/08/10 02:23:02;;;;;;;;;;;;;;;;;;2199425;66;1734;-24
2023/08/10 02:25:32;;;;;;;;;;;;;;;;;;2197966;66;2044;-24
2023/08/10 02:28:02;;;;;;;;;;;;;;;;;;2198860;59;1729;-23
2023/08/10 02:30:33;;;;;;;;;;;;;;;;;;2198785;66;1790;-24
2023/08/10 02:33:03;;;;;;;;;;;;;;;;;;2199899;59;1731;-24
2023/08/10 02:35:33;;;;;;;;;;;;;;;;;;2199952;66;1897;-24
2023/08/10 02:38:05;;;;;;;;;;;;;;;;;;2201141;66;1991;-24
2023/08/10 02:40:35;;;;;;;;;;;;;;;;;;2201454;66;2009;-23
2023/08/10 02:43:05;;;;;;;;;;;;;;;;;;2199524;66;1980;-24
2023/08/10 02:45:35;;;;;;;;;;;;;;;;;;2198991;59;2296;-24
2023/08/10 02:48:06;;;;;;;;;;;;;;;;;;2199484;66;1759;-24
2023/08/10 02:50:36;;;;;;;;;;;;;;;;;;2197833;59;1966;-24
2023/08/10 02:53:06;;;;;;;;;;;;;;;;;;2199398;59;1990;-24
2023/08/10 02:55:36;;;;;;;;;;;;;;;;;;2199413;59;2097;-24
2023/08/10 02:58:07;;;;;;;;;;;;;;;;;;2198392;59;1456;-24
2023/08/10 03:00:37;;;;;;;;;;;;;;;;;;2199004;59;2243;-24
2023/08/10 03:03:08;;;;;;;;;;;;;;;;;;2198309;66;1761;-23
2023/08/10 03:05:38;;;;;;;;;;;;;;;;;;2198810;59;1744;-23
2023/08/10 03:08:09;;;;;;;;;;;;;;;;;;2198105;66;1764;-24
2023/08/10 03:10:39;;;;;;;;;;;;;;;;;;2197600;59;1949;-24
2023/08/10 03:13:09;;;;;;;;;;;;;;;;;;2201458;59;2626;-24
2023/08/10 03:15:39;;;;;;;;;;;;;;;;;;2200347;66;2227;-24
2023/08/10 03:18:09;;;;;;;;;;;;;;;;;;2197507;66;2520;-24
2023/08/10 03:20:40;;;;;;;;;;;;;;;;;;2197908;60;2174;-24
2023/08/10 03:23:10;;;;;;;;;;;;;;;;;;2199296;66;2558;-24
2023/08/10 03:25:40;;;;;;;;;;;;;;;;;;2197163;66;1648;-24
2023/08/10 03:28:10;;;;;;;;;;;;;;;;;;2199324;66;2243;-23
2023/08/10 03:30:41;;;;;;;;;;;;;;;;;;2198605;66;1978;-23
2023/08/10 03:33:11;;;;;;;;;;;;;;;;;;2199543;59;1834;-23
2023/08/10 03:35:41;;;;;;;;;;;;;;;;;;2197365;66;2269;-23
2023/08/10 03:38:12;;;;;;;;;;;;;;;;;;2200411;66;1809;-23
2023/08/10 03:40:42;;;;;;;;;;;;;;;;;;2198675;66;1941;-23
2023/08/10 03:43:12;;;;;;;;;;;;;;;;;;2197885;66;1836;-23
2023/08/10 03:45:43;;;;;;;;;;;;;;;;;;2201887;59;2171;-23
2023/08/10 03:48:13;;;;;;;;;;;;;;;;;;2199552;66;2379;-23
2023/08/10 03:50:43;;;;;;;;;;;;;;;;;;2197599;59;2234;-23
2023/08/10 03:53:13;;;;;;;;;;;;;;;;;;2198865;59;1908;-23
2023/08/10 03:55:44;;;;;;;;;;;;;;;;;;2199570;59;2526;-23
2023/08/10 03:58:14;;;;;;;;;;;;;;;;;;2198931;66;2139;-23
2023/08/10 04:00:45;;;;;;;;;;;;;;;;;;2198608;66;2090;-23
2023/08/10 04:03:15;;;;;;;;;;;;;;;;;;2200253;66;2272;-23
2023/08/10 04:05:45;;;;;;;;;;;;;;;;;;2198213;59;2650;-23
2023/08/10 04:08:15;;;;;;;;;;;;;;;;;;2197566;66;1841;-23
2023/08/10 04:10:46;;;;;;;;;;;;;;;;;;2198571;66;2362;-23
2023/08/10 04:13:16;;;;;;;;;;;;;;;;;;2197348;66;2425;-23
2023/08/10 04:15:48;;;;;;;;;;;;;;;;;;2198283;66;2197;-24
2023/08/10 04:18:18;;;;;;;;;;;;;;;;;;2198985;66;1958;-25
2023/08/10 04:20:49;;;;;;;;;;;;;;;;;;2196998;66;2400;-23
2023/08/10 04:23:19;;;;;;;;;;;;;;;;;;2196323;66;2477;-23
2023/08/10 04:25:49;;;;;;;;;;;;;;;;;;2199555;59;1704;-23
2023/08/10 04:28:20;;;;;;;;;;;;;;;;;;2198542;66;1776;-23
2023/08/10 04:30:50;;;;;;;;;;;;;;;;;;2198399;59;1900;-23
2023/08/10 04:33:20;;;;;;;;;;;;;;;;;;2198355;59;1900;-23
2023/08/10 04:35:51;;;;;;;;;;;;;;;;;;2198685;66;1826;-23
2023/08/10 04:38:21;;;;;;;;;;;;;;;;;;2198635;66;2700;-23
2023/08/10 04:40:51;;;;;;;;;;;;;;;;;;2197189;66;2583;-23
2023/08/10 04:43:21;;;;;;;;;;;;;;;;;;2199963;66;2083;-23
2023/08/10 04:45:52;;;;;;;;;;;;;;;;;;2198597;59;1887;-23
2023/08/10 04:48:22;;;;;;;;;;;;;;;;;;2199470;66;1477;-24
2023/08/10 04:50:55;;;;;;;;;;;;;;;;;;2197412;59;2230;-23
2023/08/10 04:53:26;;;;;;;;;;;;;;;;;;2197913;59;2329;-24
2023/08/10 04:55:56;;;;;;;;;;;;;;;;;;2199291;59;2434;-24
2023/08/10 04:58:27;;;;;;;;;;;;;;;;;;2198905;66;1967;-24
2023/08/10 05:00:58;;;;;;;;;;;;;;;;;;2199054;59;1984;-24
2023/08/10 05:03:28;;;;;;;;;;;;;;;;;;2200574;66;1788;-24
2023/08/10 05:06:02;;;;;;;;;;;;;;;;;;2198704;59;1917;-24
2023/08/10 05:08:32;;;;;;;;;;;;;;;;;;2199278;66;1962;-23
2023/08/10 05:11:02;;;;;;;;;;;;;;;;;;2196881;66;1751;-24
2023/08/10 05:13:33;;;;;;;;;;;;;;;;;;2199001;59;2547;-24
2023/08/10 05:16:04;;;;;;;;;;;;;;;;;;2196710;66;1777;-24
2023/08/10 05:18:34;;;;;;;;;;;;;;;;;;2197029;66;2610;-24
2023/08/10 05:21:05;;;;;;;;;;;;;;;;;;2198186;66;2689;-24
2023/08/10 05:23:37;;;;;;;;;;;;;;;;;;2196059;66;2617;-24
2023/08/10 05:26:08;;;;;;;;;;;;;;;;;;2196466;59;2618;-24
2023/08/10 05:28:38;;;;;;;;;;;;;;;;;;2198146;59;2412;-23
2023/08/10 05:31:08;;;;;;;;;;;;;;;;;;2197250;59;1457;-24
2023/08/10 05:33:39;;;;;;;;;;;;;;;;;;2196958;59;2161;-23
2023/08/10 05:36:09;;;;;;;;;;;;;;;;;;2196025;66;1982;-23
2023/08/10 05:38:40;;;;;;;;;;;;;;;;;;2198413;66;2408;-24
2023/08/10 05:41:10;;;;;;;;;;;;;;;;;;2199021;66;2267;-24
2023/08/10 05:43:40;;;;;;;;;;;;;;;;;;2197628;66;1789;-24
2023/08/10 05:46:11;;;;;;;;;;;;;;;;;;2199550;59;1801;-23
2023/08/10 05:48:41;;;;;;;;;;;;;;;;;;2197914;66;1774;-24
2023/08/10 05:51:12;;;;;;;;;;;;;;;;;;2197149;59;1952;-24
2023/08/10 05:53:42;;;;;;;;;;;;;;;;;;2197863;58;1890;-24
2023/08/10 05:56:12;;;;;;;;;;;;;;;;;;2197966;59;1893;-23
2023/08/10 05:58:42;;;;;;;;;;;;;;;;;;2196731;66;2395;-24
2023/08/10 06:01:13;;;;;;;;;;;;;;;;;;2198459;59;1948;-24
2023/08/10 06:03:43;;;;;;;;;;;;;;;;;;2197349;66;3095;-24
2023/08/10 06:06:14;;;;;;;;;;;;;;;;;;2199220;66;2638;-24
2023/08/10 06:08:44;;;;;;;;;;;;;;;;;;2197885;66;2576;-24
2023/08/10 06:11:15;;;;;;;;;;;;;;;;;;2197141;59;1906;-24
2023/08/10 06:13:45;;;;;;;;;;;;;;;;;;2197229;66;1967;-24
2023/08/10 06:16:16;;;;;;;;;;;;;;;;;;2196682;66;2730;-24
2023/08/10 06:18:46;;;;;;;;;;;;;;;;;;2197407;66;3274;-24
2023/08/10 06:21:18;;;;;;;;;;;;;;;;;;2197091;66;1932;-24
2023/08/10 06:23:51;;;;;;;;;;;;;;;;;;2197111;58;2739;-24
2023/08/10 06:26:21;;;;;;;;;;;;;;;;;;2197131;59;2283;-24
2023/08/10 06:28:51;;;;;;;;;;;;;;;;;;2197960;59;1631;-24
2023/08/10 06:31:22;;;;;;;;;;;;;;;;;;2196899;60;2024;-24
2023/08/10 06:33:53;;;;;;;;;;;;;;;;;;2198098;58;1839;-24
2023/08/10 06:36:23;;;;;;;;;;;;;;;;;;2198274;66;2724;-24
2023/08/10 06:38:54;;;;;;;;;;;;;;;;;;2198327;66;1790;-24
2023/08/10 06:41:24;;;;;;;;;;;;;;;;;;2197407;66;3193;-24
2023/08/10 06:43:54;;;;;;;;;;;;;;;;;;2197974;59;1609;-24
2023/08/10 06:46:25;;;;;;;;;;;;;;;;;;2198116;59;2673;-24
2023/08/10 06:48:55;;;;;;;;;;;;;;;;;;2199220;66;2335;-24
2023/08/10 06:51:25;;;;;;;;;;;;;;;;;;2199822;59;2365;-24
2023/08/10 06:53:56;;;;;;;;;;;;;;;;;;2197558;58;2510;-24
2023/08/10 06:56:29;;;;;;;;;;;;;;;;;;2201012;59;2512;-24
2023/08/10 06:58:59;;;;;;;;;;;;;;;;;;2197270;59;2384;-24
2023/08/10 07:01:30;;;;;;;;;;;;;;;;;;2200815;59;1936;-24
2023/08/10 07:04:00;;;;;;;;;;;;;;;;;;2198189;59;2221;-24
2023/08/10 07:06:31;;;;;;;;;;;;;;;;;;2198432;66;2980;-24
2023/08/10 07:09:03;;;;;;;;;;;;;;;;;;2196730;66;2316;-24
2023/08/10 07:11:33;;;;;;;;;;;;;;;;;;2196919;59;1974;-24
2023/08/10 07:14:04;;;;;;;;;;;;;;;;;;2197709;66;2237;-25
2023/08/10 07:16:34;;;;;;;;;;;;;;;;;;2198584;66;1898;-25
2023/08/10 07:19:04;;;;;;;;;;;;;;;;;;2196771;59;2001;-25
2023/08/10 07:21:34;;;;;;;;;;;;;;;;;;2198606;66;1936;-25
2023/08/10 07:24:05;;;;;;;;;;;;;;;;;;2195646;60;2696;-25
2023/08/10 07:26:35;;;;;;;;;;;;;;;;;;2197012;59;2448;-22
2023/08/10 07:29:05;;;;;;;;;;;;;;;;;;2197077;59;1866;-22
2023/08/10 07:31:36;;;;;;;;;;;;;;;;;;2197882;59;2084;-22
2023/08/10 07:34:06;;;;;;;;;;;;;;;;;;2197207;59;1732;-22
2023/08/10 07:36:36;;;;;;;;;;;;;;;;;;2196147;64;1831;-22
2023/08/10 07:39:07;;;;;;;;;;;;;;;;;;2196740;66;1581;-22
2023/08/10 07:41:37;;;;;;;;;;;;;;;;;;2196242;66;2006;-22
2023/08/10 07:44:08;;;;;;;;;;;;;;;;;;2196477;66;1878;-22
2023/08/10 07:46:38;;;;;;;;;;;;;;;;;;2197987;59;2557;-22
2023/08/10 07:49:08;;;;;;;;;;;;;;;;;;2198711;66;2121;-23
2023/08/10 07:51:38;;;;;;;;;;;;;;;;;;2198764;59;2425;-24
2023/08/10 07:54:09;;;;;;;;;;;;;;;;;;2196654;58;1881;-23
2023/08/10 07:56:41;;;;;;;;;;;;;;;;;;2198483;59;1805;-22
2023/08/10 07:59:12;;;;;;;;;;;;;;;;;;2199143;66;1772;-23
2023/08/10 08:01:42;;;;;;;;;;;;;;;;;;2200692;59;1945;-22
2023/08/10 08:04:12;;;;;;;;;;;;;;;;;;2197011;59;2267;-23
2023/08/10 08:06:42;;;;;;;;;;;;;;;;;;2199281;66;3026;-23
2023/08/10 08:09:13;;;;;;;;;;;;;;;;;;2196736;59;2020;-23
2023/08/10 08:11:43;;;;;;;;;;;;;;;;;;2199010;59;1910;-23
2023/08/10 08:14:14;;;;;;;;;;;;;;;;;;2196604;66;1779;-23
2023/08/10 08:16:44;;;;;;;;;;;;;;;;;;2197960;66;1851;-24
2023/08/10 08:19:14;;;;;;;;;;;;;;;;;;2197978;66;2121;-23
2023/08/10 08:21:48;;;;;;;;;;;;;;;;;;2194959;59;2627;-24
2023/08/10 08:24:19;;;;;;;;;;;;;;;;;;2197045;66;2108;-24
2023/08/10 08:26:49;;;;;;;;;;;;;;;;;;2196271;59;2211;-24
2023/08/10 08:29:19;;;;;;;;;;;;;;;;;;2196519;66;1788;-24
2023/08/10 08:31:49;;;;;;;;;;;;;;;;;;2197611;59;2307;-24
2023/08/10 08:34:19;;;;;;;;;;;;;;;;;;2196318;58;1630;-24
2023/08/10 08:36:50;;;;;;;;;;;;;;;;;;2194144;66;1773;-24
2023/08/10 08:39:20;;;;;;;;;;;;;;;;;;2197041;66;2499;-24
2023/08/10 08:41:50;;;;;;;;;;;;;;;;;;2196216;66;3168;-24
2023/08/10 08:44:21;;;;;;;;;;;;;;;;;;2203905;54;2423;-21
2023/08/10 08:46:51;;;;;;;;;;;;;;;;;;2202932;66;1661;-21
2023/08/10 08:49:22;;;;;;;;;;;;;;;;;;2205098;59;1828;-21
2023/08/10 08:51:52;;;;;;;;;;;;;;;;;;2205492;59;1963;-21
2023/08/10 08:54:24;;;;;;;;;;;;;;;;;;2204940;59;1852;-19
2023/08/10 08:56:54;;;;;;;;;;;;;;;;;;2204737;59;1456;-19
2023/08/10 08:59:28;;;;;;;;;;;;;;;;;;2205727;66;1380;-19
2023/08/10 09:01:59;;;;;;;;;;;;;;;;;;2204096;59;1991;-19
2023/08/10 09:04:29;;;;;;;;;;;;;;;;;;2206451;58;1675;-19
2023/08/10 09:06:59;;;;;;;;;;;;;;;;;;2204569;66;1256;-19
2023/08/10 09:09:30;;;;;;;;;;;;;;;;;;2204719;66;1591;-19
2023/08/10 09:12:20;;;;;;;;;;;;;;;;;;2205060;59;1935;-19
2023/08/10 09:15:02;;;;;;;;;;;;;;;;;;2204731;66;2111;-19
2023/08/10 09:17:33;;;;;;;;;;;;;;;;;;2204892;66;1147;-19
2023/08/10 09:20:06;;;;;;;;;;;;;;;;;;2204625;66;1718;-19
2023/08/10 09:22:38;;;;;;;;;;;;;;;;;;2204210;66;1944;-19
2023/08/10 09:25:08;;;;;;;;;;;;;;;;;;2203233;60;2334;-19
2023/08/10 09:27:38;;;;;;;;;;;;;;;;;;2204094;59;2476;-19
2023/08/10 09:30:09;;;;;;;;;;;;;;;;;;2203520;63;1915;-19
2023/08/10 09:32:39;;;;;;;;;;;;;;;;;;2204141;59;2001;-19
2023/08/10 09:35:14;;;;;;;;;;;;;;;;;;2203481;66;2048;-19
2023/08/10 09:37:46;;;;;;;;;;;;;;;;;;2204852;66;1995;-19
2023/08/10 09:40:16;;;;;;;;;;;;;;;;;;2204933;66;2008;-19
2023/08/10 09:42:48;;;;;;;;;;;;;;;;;;2203306;66;1746;-19
2023/08/10 09:45:19;;;;;;;;;;;;;;;;;;2203408;59;2008;-20
2023/08/10 09:47:49;;;;;;;;;;;;;;;;;;2205254;66;2510;-19
2023/08/10 09:50:19;;;;;;;;;;;;;;;;;;2205037;59;1638;-19
2023/08/10 09:52:52;;;;;;;;;;;;;;;;;;2203838;59;1779;-19
2023/08/10 09:55:22;;;;;;;;;;;;;;;;;;2204695;66;1889;-19
2023/08/10 09:57:52;;;;;;;;;;;;;;;;;;2206450;66;1493;-19
2023/08/10 10:00:23;;;;;;;;;;;;;;;;;;2203929;59;1924;-19
2023/08/10 10:02:53;;;;;;;;;;;;;;;;;;2202920;66;2313;-19
2023/08/10 10:05:23;;;;;;;;;;;;;;;;;;2203468;58;2492;-19
2023/08/10 10:07:53;;;;;;;;;;;;;;;;;;2206356;66;1934;-19
2023/08/10 10:10:24;;;;;;;;;;;;;;;;;;2203240;59;1702;-19
2023/08/10 10:12:55;;;;;;;;;;;;;;;;;;2204397;59;2115;-19
2023/08/10 10:15:25;;;;;;;;;;;;;;;;;;2204268;66;1834;-19
2023/08/10 10:17:56;;;;;;;;;;;;;;;;;;2204108;59;1700;-19
2023/08/10 10:20:26;;;;;;;;;;;;;;;;;;2204855;66;1945;-19
2023/08/10 10:22:56;;;;;;;;;;;;;;;;;;2205233;66;1657;-19
2023/08/10 10:25:27;;;;;;;;;;;;;;;;;;2204958;59;2386;-19
2023/08/10 10:27:57;;;;;;;;;;;;;;;;;;2204624;59;2690;-19
2023/08/10 10:30:27;;;;;;;;;;;;;;;;;;2205824;59;1769;-19
2023/08/10 10:32:58;;;;;;;;;;;;;;;;;;2203869;59;1860;-19
2023/08/10 10:35:32;;;;;;;;;;;;;;;;;;2205324;66;1451;-19
2023/08/10 10:38:03;;;;;;;;;;;;;;;;;;2203748;66;1637;-19
2023/08/10 10:40:33;;;;;;;;;;;;;;;;;;2204810;66;1990;-19
2023/08/10 10:43:04;;;;;;;;;;;;;;;;;;2203223;59;1990;-19
2023/08/10 10:45:36;;;;;;;;;;;;;;;;;;2203982;59;3457;-19
2023/08/10 10:48:09;;;;;;;;;;;;;;;;;;2203932;66;1886;-19
2023/08/10 10:50:40;;;;;;;;;;;;;;;;;;2204466;59;1951;-19
2023/08/10 10:53:13;;;;;;;;;;;;;;;;;;2205410;58;2067;-19
2023/08/10 10:55:44;;;;;;;;;;;;;;;;;;2204568;59;1597;-19
2023/08/10 10:58:15;;;;;;;;;;;;;;;;;;2203828;66;1469;-19
2023/08/10 11:00:45;;;;;;;;;;;;;;;;;;2203616;59;2161;-19
2023/08/10 11:03:17;;;;;;;;;;;;;;;;;;2203396;66;1237;-19
2023/08/10 11:05:48;;;;;;;;;;;;;;;;;;2204186;58;1300;-19
2023/08/10 11:08:19;;;;;;;;;;;;;;;;;;2204021;66;1121;-20
2023/08/10 11:10:51;;;;;;;;;;;;;;;;;;2203577;66;1719;-19
2023/08/10 11:13:24;;;;;;;;;;;;;;;;;;2203485;59;1666;-19
2023/08/10 11:15:54;;;;;;;;;;;;;;;;;;2203103;66;1278;-19
2023/08/10 11:18:25;;;;;;;;;;;;;;;;;;2203487;66;1164;-19
2023/08/10 11:20:56;;;;;;;;;;;;;;;;;;2203370;66;1999;-19
2023/08/10 11:23:27;;;;;;;;;;;;;;;;;;2204101;59;1233;-19
2023/08/10 11:25:57;;;;;;;;;;;;;;;;;;2203617;59;1833;-19
2023/08/10 11:28:29;;;;;;;;;;;;;;;;;;2203731;59;2250;-19
2023/08/10 11:31:03;;;;;;;;;;;;;;;;;;2203541;66;3252;-19
2023/08/10 11:33:33;;;;;;;;;;;;;;;;;;2206259;59;1863;-19
2023/08/10 11:36:04;;;;;;;;;;;;;;;;;;2204268;66;1699;-19
2023/08/10 11:38:49;;;;;;;;;;;;;;;;;;2205062;66;1431;-19
2023/08/10 11:41:19;;;;;;;;;;;;;;;;;;2204847;59;1989;-19
2023/08/10 11:43:50;;;;;;;;;;;;;;;;;;2204132;66;1568;-19
2023/08/10 11:46:22;;;;;;;;;;;;;;;;;;2203284;59;1402;-19
2023/08/10 11:48:52;;;;;;;;;;;;;;;;;;2203523;59;1125;-19
2023/08/10 11:51:22;;;;;;;;;;;;;;;;;;2205532;59;1964;-19
2023/08/10 11:53:52;;;;;;;;;;;;;;;;;;2207060;58;1686;-19
2023/08/10 11:56:23;;;;;;;;;;;;;;;;;;2206707;59;1697;-19
2023/08/10 11:58:53;;;;;;;;;;;;;;;;;;2207047;66;2178;-19
2023/08/10 12:01:24;;;;;;;;;;;;;;;;;;2206957;59;2000;-19
2023/08/10 12:03:54;;;;;;;;;;;;;;;;;;2205942;58;1330;-19
2023/08/10 12:06:25;;;;;;;;;;;;;;;;;;2207826;59;1778;-19
2023/08/10 12:08:55;;;;;;;;;;;;;;;;;;2206168;66;2107;-19
2023/08/10 12:11:28;;;;;;;;;;;;;;;;;;2203134;59;1687;-19
2023/08/10 12:13:59;;;;;;;;;;;;;;;;;;2203881;66;1660;-19
2023/08/10 12:16:29;;;;;;;;;;;;;;;;;;2204011;59;1207;-19
2023/08/10 12:18:59;;;;;;;;;;;;;;;;;;2204136;66;1350;-19
2023/08/10 12:21:30;;;;;;;;;;;;;;;;;;2204473;66;1940;-19
2023/08/10 12:24:00;;;;;;;;;;;;;;;;;;2205088;66;1335;-19
2023/08/10 12:26:30;;;;;;;;;;;;;;;;;;2208896;59;1805;-21
2023/08/10 12:29:01;;;;;;;;;;;;;;;;;;2206733;59;2739;-21
2023/08/10 12:31:32;;;;;;;;;;;;;;;;;;2207250;59;2245;-21
2023/08/10 12:34:02;;;;;;;;;;;;;;;;;;2206109;59;1819;-21
2023/08/10 12:36:36;;;;;;;;;;;;;;;;;;2207398;66;2568;-21
2023/08/10 12:39:07;;;;;;;;;;;;;;;;;;2206167;66;2385;-21
2023/08/10 12:41:38;;;;;;;;;;;;;;;;;;2206548;66;2875;-21
2023/08/10 12:44:08;;;;;;;;;;;;;;;;;;2206595;59;1932;-21
2023/08/10 12:46:38;;;;;;;;;;;;;;;;;;2205128;59;1967;-21
2023/08/10 12:49:08;;;;;;;;;;;;;;;;;;2205853;60;1782;-21
2023/08/10 12:51:42;;;;;;;;;;;;;;;;;;2206701;59;2383;-20
2023/08/10 12:54:12;;;;;;;;;;;;;;;;;;2205024;59;2603;-21
2023/08/10 12:56:42;;;;;;;;;;;;;;;;;;2206363;59;1970;-20
2023/08/10 12:59:13;;;;;;;;;;;;;;;;;;2204848;66;1897;-21
2023/08/10 13:01:43;;;;;;;;;;;;;;;;;;2205207;59;1937;-21
2023/08/10 13:04:13;;;;;;;;;;;;;;;;;;2205730;58;1889;-21
2023/08/10 13:06:43;;;;;;;;;;;;;;;;;;2204965;66;1897;-20
2023/08/10 13:09:13;;;;;;;;;;;;;;;;;;2204881;66;1472;-21
2023/08/10 13:11:44;;;;;;;;;;;;;;;;;;2205941;66;1452;-20
2023/08/10 13:14:14;;;;;;;;;;;;;;;;;;2204779;66;1454;-21
2023/08/10 13:16:44;;;;;;;;;;;;;;;;;;2205360;66;1289;-20
2023/08/10 13:19:17;;;;;;;;;;;;;;;;;;2205620;66;1699;-21
2023/08/10 13:21:47;;;;;;;;;;;;;;;;;;2205698;59;2000;-21
2023/08/10 13:24:18;;;;;;;;;;;;;;;;;;2204233;66;1299;-21
2023/08/10 13:26:48;;;;;;;;;;;;;;;;;;2205577;59;1646;-21
2023/08/10 13:29:19;;;;;;;;;;;;;;;;;;2205039;59;2300;-21
2023/08/10 13:31:49;;;;;;;;;;;;;;;;;;2204586;59;2331;-20
2023/08/10 13:34:19;;;;;;;;;;;;;;;;;;2205006;59;1934;-21
2023/08/10 13:36:51;;;;;;;;;;;;;;;;;;2206956;66;1622;-20
2023/08/10 13:39:23;;;;;;;;;;;;;;;;;;2204268;66;1746;-21
2023/08/10 13:41:54;;;;;;;;;;;;;;;;;;2204780;66;1927;-22
2023/08/10 13:44:24;;;;;;;;;;;;;;;;;;2205621;59;1444;-20
2023/08/10 13:46:55;;;;;;;;;;;;;;;;;;2205429;66;1345;-21
2023/08/10 13:49:25;;;;;;;;;;;;;;;;;;2204864;66;1388;-20
2023/08/10 13:51:55;;;;;;;;;;;;;;;;;;2204621;59;2052;-21
2023/08/10 13:54:25;;;;;;;;;;;;;;;;;;2205522;58;1654;-21
2023/08/10 13:57:01;;;;;;;;;;;;;;;;;;2205005;59;1334;-21
2023/08/10 13:59:33;;;;;;;;;;;;;;;;;;2208492;66;1314;-21
2023/08/10 14:02:08;;;;;;;;;;;;;;;;;;2205471;59;1993;-21
2023/08/10 14:04:38;;;;;;;;;;;;;;;;;;2205309;59;2150;-21
2023/08/10 14:07:08;;;;;;;;;;;;;;;;;;2204510;66;1233;-21
2023/08/10 14:09:39;;;;;;;;;;;;;;;;;;2205094;66;1400;-21
2023/08/10 14:12:09;;;;;;;;;;;;;;;;;;2205319;59;1552;-21
2023/08/10 14:14:40;;;;;;;;;;;;;;;;;;2206861;66;1255;-21
2023/08/10 14:17:10;;;;;;;;;;;;;;;;;;2205711;66;1464;-21
2023/08/10 14:19:43;;;;;;;;;;;;;;;;;;2205455;66;1581;-21
2023/08/10 14:22:15;;;;;;;;;;;;;;;;;;2205003;66;1945;-21
2023/08/10 14:24:45;;;;;;;;;;;;;;;;;;2205073;66;1281;-21
2023/08/10 14:27:15;;;;;;;;;;;;;;;;;;2205529;59;1995;-21
2023/08/10 14:29:45;;;;;;;;;;;;;;;;;;2205177;67;1244;-21
2023/08/10 14:32:16;;;;;;;;;;;;;;;;;;2204035;59;2398;-21
2023/08/10 14:34:46;;;;;;;;;;;;;;;;;;2204097;59;1762;-21
2023/08/10 14:37:16;;;;;;;;;;;;;;;;;;2204194;66;1553;-21
2023/08/10 14:39:47;;;;;;;;;;;;;;;;;;2205293;66;1306;-21
2023/08/10 14:42:17;;;;;;;;;;;;;;;;;;2205693;66;1939;-21
2023/08/10 14:44:47;;;;;;;;;;;;;;;;;;2208173;53;2397;-24
2023/08/10 14:47:17;;;;;;;;;;;;;;;;;;2217327;66;1624;-24
2023/08/10 14:49:47;;;;;;;;;;;;;;;;;;2217293;58;1783;-24
2023/08/10 14:52:18;;;;;;;;;;;;;;;;;;2217814;58;1760;-24
2023/08/10 14:54:48;;;;;;;;;;;;;;;;;;2218344;59;1802;-24
2023/08/10 14:57:18;;;;;;;;;;;;;;;;;;2218283;58;2876;-24
2023/08/10 14:59:48;;;;;;;;;;;;;;;;;;2218730;58;2407;-24
2023/08/10 15:02:19;;;;;;;;;;;;;;;;;;2217238;59;1943;-24
2023/08/10 15:04:50;;;;;;;;;;;;;;;;;;2218494;58;1823;-24
2023/08/10 15:07:20;;;;;;;;;;;;;;;;;;2217454;66;1754;-24
2023/08/10 15:09:51;;;;;;;;;;;;;;;;;;2218982;66;1981;-22
2023/08/10 15:12:21;;;;;;;;;;;;;;;;;;2218660;58;2717;-23
2023/08/10 15:14:54;;;;;;;;;;;;;;;;;;2218130;66;1769;-24
2023/08/10 15:17:27;;;;;;;;;;;;;;;;;;2218524;66;2046;-24
2023/08/10 15:19:58;;;;;;;;;;;;;;;;;;2218839;66;1842;-24
2023/08/10 15:22:28;;;;;;;;;;;;;;;;;;2218560;66;2316;-24
2023/08/10 15:24:58;;;;;;;;;;;;;;;;;;2218533;66;1795;-24
2023/08/10 15:27:32;;;;;;;;;;;;;;;;;;2218225;58;1802;-24
2023/08/10 15:30:04;;;;;;;;;;;;;;;;;;2217980;66;1628;-22
2023/08/10 15:32:34;;;;;;;;;;;;;;;;;;2217540;58;2493;-22
2023/08/10 15:35:06;;;;;;;;;;;;;;;;;;2217291;66;3126;-22
2023/08/10 15:37:36;;;;;;;;;;;;;;;;;;2217278;66;1843;-22
2023/08/10 15:40:08;;;;;;;;;;;;;;;;;;2218456;66;1735;-22
2023/08/10 15:42:39;;;;;;;;;;;;;;;;;;2219173;66;1941;-22
2023/08/10 15:45:09;;;;;;;;;;;;;;;;;;2217893;58;2469;-23
2023/08/10 15:47:40;;;;;;;;;;;;;;;;;;2219172;66;1748;-22
2023/08/10 15:50:10;;;;;;;;;;;;;;;;;;2217789;58;1742;-22
2023/08/10 15:52:40;;;;;;;;;;;;;;;;;;2219316;58;1960;-22
2023/08/10 15:55:10;;;;;;;;;;;;;;;;;;2217992;66;2727;-22
2023/08/10 15:57:41;;;;;;;;;;;;;;;;;;2219012;66;3082;-22
2023/08/10 16:00:12;;;;;;;;;;;;;;;;;;2217701;58;1674;-22
2023/08/10 16:02:43;;;;;;;;;;;;;;;;;;2219011;66;2049;-22
2023/08/10 16:05:14;;;;;;;;;;;;;;;;;;2218623;58;1763;-23
2023/08/10 16:07:44;;;;;;;;;;;;;;;;;;2217699;66;1953;-22
2023/08/10 16:10:14;;;;;;;;;;;;;;;;;;2218530;66;2620;-22
2023/08/10 16:12:44;;;;;;;;;;;;;;;;;;2219289;58;2625;-22
2023/08/10 16:15:15;;;;;;;;;;;;;;;;;;2218459;66;2154;-23
2023/08/10 16:17:45;;;;;;;;;;;;;;;;;;2218451;66;1774;-23
2023/08/10 16:20:15;;;;;;;;;;;;;;;;;;2218550;66;1963;-23
2023/08/10 16:22:46;;;;;;;;;;;;;;;;;;2218805;66;2000;-23
2023/08/10 16:25:16;;;;;;;;;;;;;;;;;;2218758;66;1973;-23
2023/08/10 16:27:46;;;;;;;;;;;;;;;;;;2219603;58;1985;-22
2023/08/10 16:30:18;;;;;;;;;;;;;;;;;;2218435;66;1755;-22
2023/08/10 16:32:48;;;;;;;;;;;;;;;;;;2218875;58;2193;-22
2023/08/10 16:35:18;;;;;;;;;;;;;;;;;;2217963;66;2895;-22
2023/08/10 16:37:49;;;;;;;;;;;;;;;;;;2218869;66;1748;-24
2023/08/10 16:40:20;;;;;;;;;;;;;;;;;;2218629;66;2242;-25
2023/08/10 16:42:50;;;;;;;;;;;;;;;;;;2218750;66;1999;-24
2023/08/10 16:45:20;;;;;;;;;;;;;;;;;;2217633;58;1893;-22
2023/08/10 16:47:50;;;;;;;;;;;;;;;;;;2218764;66;1960;-22
2023/08/10 16:50:21;;;;;;;;;;;;;;;;;;2218661;58;1773;-24
2023/08/10 16:52:51;;;;;;;;;;;;;;;;;;2218963;58;1817;-25
2023/08/10 16:55:21;;;;;;;;;;;;;;;;;;2217902;58;2530;-24
2023/08/10 16:57:51;;;;;;;;;;;;;;;;;;2217672;66;1812;-22
2023/08/10 17:00:24;;;;;;;;;;;;;;;;;;2218327;58;2048;-22
2023/08/10 17:02:54;;;;;;;;;;;;;;;;;;2216904;66;1940;-22
2023/08/10 17:05:24;;;;;;;;;;;;;;;;;;2217406;58;2488;-22
2023/08/10 17:07:55;;;;;;;;;;;;;;;;;;2218653;66;1924;-22
2023/08/10 17:10:26;;;;;;;;;;;;;;;;;;2218836;66;1962;-22
2023/08/10 17:12:56;;;;;;;;;;;;;;;;;;2217777;59;2047;-22
2023/08/10 17:15:26;;;;;;;;;;;;;;;;;;2218415;66;2426;-22
2023/08/10 17:17:56;;;;;;;;;;;;;;;;;;2218573;66;1729;-22
2023/08/10 17:20:27;;;;;;;;;;;;;;;;;;2218204;66;1746;-23
2023/08/10 17:22:57;;;;;;;;;;;;;;;;;;2218388;66;2019;-23
2023/08/10 17:25:28;;;;;;;;;;;;;;;;;;2218848;66;2815;-23
2023/08/10 17:27:58;;;;;;;;;;;;;;;;;;2218788;58;1750;-23